sensor_id;sensor_type;location;lat;lon;timestamp;temperature;humidity
19258;DHT22;9763;48.780;9.212;2022-09-30T00:18:40;12.30;77.40
19258;DHT22;9763;48.780;9.212;2022-09-30T00:25:29;12.40;77.50
19258;DHT22;9763;48.780;9.212;2022-09-30T00:32:18;12.50;77.60
19258;DHT22;9763;48.780;9.212;2022-09-30T00:42:33;12.60;77.90
19258;DHT22;9763;48.780;9.212;2022-09-30T00:45:58;12.60;77.70
19258;DHT22;9763;48.780;9.212;2022-09-30T00:52:53;12.70;77.50
19258;DHT22;9763;48.780;9.212;2022-09-30T00:56:24;12.70;77.80
19258;DHT22;9763;48.780;9.212;2022-09-30T02:28:26;12.80;77.70
19258;DHT22;9763;48.780;9.212;2022-09-30T02:42:25;12.70;78.10
19258;DHT22;9763;48.780;9.212;2022-09-30T03:07:04;12.50;77.40
19258;DHT22;9763;48.780;9.212;2022-09-30T03:14:13;12.50;77.40
19258;DHT22;9763;48.780;9.212;2022-09-30T03:21:40;12.40;77.30
19258;DHT22;9763;48.780;9.212;2022-09-30T03:25:24;12.40;77.30
19258;DHT22;9763;48.780;9.212;2022-09-30T03:36:23;12.20;77.20
19258;DHT22;9763;48.780;9.212;2022-09-30T03:43:30;12.20;77.30
19258;DHT22;9763;48.780;9.212;2022-09-30T03:53:49;12.10;77.00
19258;DHT22;9763;48.780;9.212;2022-09-30T04:55:09;11.50;76.20
19258;DHT22;9763;48.780;9.212;2022-09-30T05:08:47;11.40;75.80
19258;DHT22;9763;48.780;9.212;2022-09-30T05:19:02;11.20;75.70
19258;DHT22;9763;48.780;9.212;2022-09-30T05:25:50;11.10;75.70
19258;DHT22;9763;48.780;9.212;2022-09-30T05:53:08;11.10;77.00
19258;DHT22;9763;48.780;9.212;2022-09-30T07:18:39;13.00;82.20
19258;DHT22;9763;48.780;9.212;2022-09-30T07:25:50;13.30;83.00
19258;DHT22;9763;48.780;9.212;2022-09-30T07:36:06;13.80;82.60
19258;DHT22;9763;48.780;9.212;2022-09-30T07:39:30;13.80;85.60
19258;DHT22;9763;48.780;9.212;2022-09-30T07:42:53;13.90;87.40
19258;DHT22;9763;48.780;9.212;2022-09-30T07:46:19;14.10;88.90
19258;DHT22;9763;48.780;9.212;2022-09-30T07:49:45;14.40;89.80
19258;DHT22;9763;48.780;9.212;2022-09-30T07:53:10;14.60;90.30
19258;DHT22;9763;48.780;9.212;2022-09-30T07:56:34;14.90;90.00
19258;DHT22;9763;48.780;9.212;2022-09-30T08:00:19;15.20;90.60
19258;DHT22;9763;48.780;9.212;2022-09-30T08:04:06;15.50;91.00
19258;DHT22;9763;48.780;9.212;2022-09-30T08:07:31;14.30;89.70
19258;DHT22;9763;48.780;9.212;2022-09-30T08:10:59;16.10;90.60
19258;DHT22;9763;48.780;9.212;2022-09-30T08:14:24;16.30;90.00
19258;DHT22;9763;48.780;9.212;2022-09-30T08:17:49;16.50;88.50
19258;DHT22;9763;48.780;9.212;2022-09-30T08:21:12;16.60;87.40
19258;DHT22;9763;48.780;9.212;2022-09-30T08:24:36;16.70;86.60
19258;DHT22;9763;48.780;9.212;2022-09-30T08:28:01;16.80;86.40
19258;DHT22;9763;48.780;9.212;2022-09-30T08:31:24;16.80;85.60
19258;DHT22;9763;48.780;9.212;2022-09-30T08:34:48;16.90;87.40
19258;DHT22;9763;48.780;9.212;2022-09-30T08:38:12;17.10;90.00
19258;DHT22;9763;48.780;9.212;2022-09-30T08:41:54;17.30;90.00
19258;DHT22;9763;48.780;9.212;2022-09-30T08:46:02;17.50;87.50
19258;DHT22;9763;48.780;9.212;2022-09-30T08:49:41;17.80;86.60
19258;DHT22;9763;48.780;9.212;2022-09-30T08:53:16;18.00;86.20
19258;DHT22;9763;48.780;9.212;2022-09-30T08:56:45;18.10;86.20
19258;DHT22;9763;48.780;9.212;2022-09-30T09:00:11;18.30;87.20
19258;DHT22;9763;48.780;9.212;2022-09-30T09:03:39;18.50;86.10
19258;DHT22;9763;48.780;9.212;2022-09-30T09:07:08;18.60;87.20
19258;DHT22;9763;48.780;9.212;2022-09-30T09:10:44;18.90;90.00
19258;DHT22;9763;48.780;9.212;2022-09-30T09:14:20;19.30;91.30
19258;DHT22;9763;48.780;9.212;2022-09-30T09:18:02;19.90;90.80
19258;DHT22;9763;48.780;9.212;2022-09-30T09:21:52;20.50;91.20
19258;DHT22;9763;48.780;9.212;2022-09-30T09:25:19;21.10;90.70
19258;DHT22;9763;48.780;9.212;2022-09-30T09:28:59;21.70;91.00
19258;DHT22;9763;48.780;9.212;2022-09-30T09:32:31;22.30;87.90
19258;DHT22;9763;48.780;9.212;2022-09-30T09:36:03;22.90;90.30
19258;DHT22;9763;48.780;9.212;2022-09-30T09:39:49;23.50;85.40
19258;DHT22;9763;48.780;9.212;2022-09-30T09:43:35;23.90;81.10
19258;DHT22;9763;48.780;9.212;2022-09-30T09:47:11;24.30;80.90
19258;DHT22;9763;48.780;9.212;2022-09-30T09:50:41;24.50;80.60
19258;DHT22;9763;48.780;9.212;2022-09-30T09:54:15;24.70;78.10
19258;DHT22;9763;48.780;9.212;2022-09-30T09:57:42;24.80;77.80
19258;DHT22;9763;48.780;9.212;2022-09-30T10:01:09;24.90;79.30
19258;DHT22;9763;48.780;9.212;2022-09-30T10:04:53;25.10;78.90
19258;DHT22;9763;48.780;9.212;2022-09-30T10:08:22;26.00;80.80
19258;DHT22;9763;48.780;9.212;2022-09-30T10:11:46;25.60;80.10
19258;DHT22;9763;48.780;9.212;2022-09-30T10:15:23;25.90;79.20
19258;DHT22;9763;48.780;9.212;2022-09-30T10:18:47;26.00;75.20
19258;DHT22;9763;48.780;9.212;2022-09-30T10:22:18;26.10;77.50
19258;DHT22;9763;48.780;9.212;2022-09-30T10:26:01;26.30;75.70
19258;DHT22;9763;48.780;9.212;2022-09-30T10:29:28;26.50;75.20
19258;DHT22;9763;48.780;9.212;2022-09-30T10:32:54;26.70;77.10
19258;DHT22;9763;48.780;9.212;2022-09-30T10:36:19;26.90;75.60
19258;DHT22;9763;48.780;9.212;2022-09-30T10:39:51;27.00;75.70
19258;DHT22;9763;48.780;9.212;2022-09-30T10:43:25;27.20;73.60
19258;DHT22;9763;48.780;9.212;2022-09-30T10:46:59;27.20;72.70
19258;DHT22;9763;48.780;9.212;2022-09-30T10:50:26;27.40;73.20
19258;DHT22;9763;48.780;9.212;2022-09-30T10:53:49;27.50;75.30
19258;DHT22;9763;48.780;9.212;2022-09-30T10:57:14;27.70;75.70
19258;DHT22;9763;48.780;9.212;2022-09-30T11:00:40;28.00;75.30
19258;DHT22;9763;48.780;9.212;2022-09-30T11:04:10;28.40;76.30
19258;DHT22;9763;48.780;9.212;2022-09-30T11:07:47;28.70;73.80
19258;DHT22;9763;48.780;9.212;2022-09-30T11:11:18;29.00;72.70
19258;DHT22;9763;48.780;9.212;2022-09-30T11:14:50;29.20;72.90
19258;DHT22;9763;48.780;9.212;2022-09-30T11:18:22;29.50;72.90
19258;DHT22;9763;48.780;9.212;2022-09-30T11:21:54;29.70;71.40
19258;DHT22;9763;48.780;9.212;2022-09-30T11:25:27;29.80;70.10
19258;DHT22;9763;48.780;9.212;2022-09-30T11:29:14;29.90;68.40
19258;DHT22;9763;48.780;9.212;2022-09-30T11:33:02;29.90;66.40
19258;DHT22;9763;48.780;9.212;2022-09-30T11:36:40;30.00;68.40
19258;DHT22;9763;48.780;9.212;2022-09-30T11:40:36;30.00;69.00
19258;DHT22;9763;48.780;9.212;2022-09-30T11:44:16;30.00;65.50
19258;DHT22;9763;48.780;9.212;2022-09-30T11:48:00;30.00;65.00
19258;DHT22;9763;48.780;9.212;2022-09-30T11:51:45;30.00;66.30
19258;DHT22;9763;48.780;9.212;2022-09-30T11:55:34;30.00;67.40
19258;DHT22;9763;48.780;9.212;2022-09-30T11:59:18;29.90;65.20
19258;DHT22;9763;48.780;9.212;2022-09-30T12:02:48;29.70;62.70
19258;DHT22;9763;48.780;9.212;2022-09-30T12:06:22;29.50;66.80
19258;DHT22;9763;48.780;9.212;2022-09-30T12:09:53;29.20;64.90
19258;DHT22;9763;48.780;9.212;2022-09-30T12:13:26;28.90;62.80
19258;DHT22;9763;48.780;9.212;2022-09-30T12:16:54;28.40;59.90
19258;DHT22;9763;48.780;9.212;2022-09-30T12:20:23;27.90;63.90
19258;DHT22;9763;48.780;9.212;2022-09-30T12:23:54;27.40;66.00
19258;DHT22;9763;48.780;9.212;2022-09-30T12:27:26;27.00;65.90
19258;DHT22;9763;48.780;9.212;2022-09-30T12:31:05;26.70;66.90
19258;DHT22;9763;48.780;9.212;2022-09-30T12:34:55;26.40;66.10
19258;DHT22;9763;48.780;9.212;2022-09-30T12:38:49;26.10;66.40
19258;DHT22;9763;48.780;9.212;2022-09-30T12:42:45;25.80;66.70
19258;DHT22;9763;48.780;9.212;2022-09-30T12:46:28;25.50;64.40
19258;DHT22;9763;48.780;9.212;2022-09-30T12:50:12;25.20;66.60
19258;DHT22;9763;48.780;9.212;2022-09-30T12:53:39;24.90;67.50
19258;DHT22;9763;48.780;9.212;2022-09-30T12:57:04;24.70;67.00
19258;DHT22;9763;48.780;9.212;2022-09-30T13:00:32;24.40;68.00
19258;DHT22;9763;48.780;9.212;2022-09-30T13:04:30;24.10;68.30
19258;DHT22;9763;48.780;9.212;2022-09-30T13:08:08;23.80;64.60
19258;DHT22;9763;48.780;9.212;2022-09-30T13:11:36;23.70;66.90
19258;DHT22;9763;48.780;9.212;2022-09-30T13:15:21;23.50;68.00
19258;DHT22;9763;48.780;9.212;2022-09-30T13:19:00;23.30;65.10
19258;DHT22;9763;48.780;9.212;2022-09-30T13:22:58;23.00;68.90
19258;DHT22;9763;48.780;9.212;2022-09-30T13:26:37;22.80;66.10
19258;DHT22;9763;48.780;9.212;2022-09-30T13:30:35;22.70;67.80
19258;DHT22;9763;48.780;9.212;2022-09-30T13:34:09;22.60;65.90
19258;DHT22;9763;48.780;9.212;2022-09-30T13:37:38;22.60;68.00
19258;DHT22;9763;48.780;9.212;2022-09-30T13:41:09;22.50;69.80
19258;DHT22;9763;48.780;9.212;2022-09-30T13:44:53;22.50;69.20
19258;DHT22;9763;48.780;9.212;2022-09-30T13:48:27;22.30;69.00
19258;DHT22;9763;48.780;9.212;2022-09-30T13:51:54;22.20;69.20
19258;DHT22;9763;48.780;9.212;2022-09-30T13:55:21;22.00;69.80
19258;DHT22;9763;48.780;9.212;2022-09-30T13:59:02;21.90;69.80
19258;DHT22;9763;48.780;9.212;2022-09-30T14:03:06;21.80;68.40
19258;DHT22;9763;48.780;9.212;2022-09-30T14:06:47;21.70;67.20
19258;DHT22;9763;48.780;9.212;2022-09-30T14:10:31;21.50;69.30
19258;DHT22;9763;48.780;9.212;2022-09-30T14:14:31;21.40;69.70
19258;DHT22;9763;48.780;9.212;2022-09-30T14:18:58;21.20;68.50
19258;DHT22;9763;48.780;9.212;2022-09-30T14:22:39;21.10;68.40
19258;DHT22;9763;48.780;9.212;2022-09-30T14:26:14;21.00;70.80
19258;DHT22;9763;48.780;9.212;2022-09-30T14:30:02;20.80;69.50
19258;DHT22;9763;48.780;9.212;2022-09-30T14:33:29;20.90;69.80
19258;DHT22;9763;48.780;9.212;2022-09-30T14:36:55;20.60;71.40
19258;DHT22;9763;48.780;9.212;2022-09-30T14:40:26;20.60;71.80
19258;DHT22;9763;48.780;9.212;2022-09-30T14:43:54;20.50;71.60
19258;DHT22;9763;48.780;9.212;2022-09-30T14:47:23;20.40;71.60
19258;DHT22;9763;48.780;9.212;2022-09-30T14:50:54;20.40;71.80
19258;DHT22;9763;48.780;9.212;2022-09-30T14:54:23;20.40;71.50
19258;DHT22;9763;48.780;9.212;2022-09-30T14:57:49;20.40;71.80
19258;DHT22;9763;48.780;9.212;2022-09-30T15:01:15;20.30;72.50
19258;DHT22;9763;48.780;9.212;2022-09-30T15:04:46;20.30;72.00
19258;DHT22;9763;48.780;9.212;2022-09-30T15:08:17;20.30;70.40
19258;DHT22;9763;48.780;9.212;2022-09-30T15:11:43;20.20;69.90
19258;DHT22;9763;48.780;9.212;2022-09-30T15:15:25;20.20;71.30
19258;DHT22;9763;48.780;9.212;2022-09-30T15:18:56;20.10;69.20
19258;DHT22;9763;48.780;9.212;2022-09-30T15:22:23;20.10;71.40
19258;DHT22;9763;48.780;9.212;2022-09-30T15:25:48;20.00;70.90
19258;DHT22;9763;48.780;9.212;2022-09-30T15:29:13;20.00;71.00
19258;DHT22;9763;48.780;9.212;2022-09-30T15:32:38;19.90;70.40
19258;DHT22;9763;48.780;9.212;2022-09-30T15:36:05;19.90;70.50
19258;DHT22;9763;48.780;9.212;2022-09-30T15:39:40;19.80;70.30
19258;DHT22;9763;48.780;9.212;2022-09-30T15:43:37;19.70;70.10
19258;DHT22;9763;48.780;9.212;2022-09-30T15:47:05;19.60;69.60
19258;DHT22;9763;48.780;9.212;2022-09-30T15:50:37;19.70;70.40
19258;DHT22;9763;48.780;9.212;2022-09-30T15:54:27;19.50;69.10
19258;DHT22;9763;48.780;9.212;2022-09-30T15:57:56;19.40;67.90
19258;DHT22;9763;48.780;9.212;2022-09-30T16:01:23;19.40;70.00
19258;DHT22;9763;48.780;9.212;2022-09-30T16:04:50;19.30;69.90
19258;DHT22;9763;48.780;9.212;2022-09-30T16:08:20;19.30;69.70
19258;DHT22;9763;48.780;9.212;2022-09-30T16:11:56;19.20;68.90
19258;DHT22;9763;48.780;9.212;2022-09-30T16:15:25;19.10;68.40
19258;DHT22;9763;48.780;9.212;2022-09-30T16:18:50;19.10;69.20
19258;DHT22;9763;48.780;9.212;2022-09-30T16:22:46;19.00;68.80
19258;DHT22;9763;48.780;9.212;2022-09-30T16:26:18;18.90;66.90
19258;DHT22;9763;48.780;9.212;2022-09-30T16:29:45;18.90;67.80
19258;DHT22;9763;48.780;9.212;2022-09-30T16:33:12;18.80;68.20
19258;DHT22;9763;48.780;9.212;2022-09-30T16:36:37;18.80;67.90
19258;DHT22;9763;48.780;9.212;2022-09-30T16:40:08;18.70;67.80
19258;DHT22;9763;48.780;9.212;2022-09-30T16:43:39;18.60;66.90
19258;DHT22;9763;48.780;9.212;2022-09-30T16:47:04;18.50;67.50
19258;DHT22;9763;48.780;9.212;2022-09-30T16:50:32;18.40;67.50
19258;DHT22;9763;48.780;9.212;2022-09-30T16:54:00;18.30;67.10
19258;DHT22;9763;48.780;9.212;2022-09-30T16:57:23;18.20;67.30
19258;DHT22;9763;48.780;9.212;2022-09-30T17:00:47;18.10;67.20
19258;DHT22;9763;48.780;9.212;2022-09-30T17:04:11;17.90;67.00
19258;DHT22;9763;48.780;9.212;2022-09-30T17:07:41;17.80;66.90
19258;DHT22;9763;48.780;9.212;2022-09-30T17:11:05;17.70;66.60
19258;DHT22;9763;48.780;9.212;2022-09-30T17:14:29;17.60;66.90
19258;DHT22;9763;48.780;9.212;2022-09-30T17:17:52;17.50;66.90
19258;DHT22;9763;48.780;9.212;2022-09-30T17:21:16;17.30;66.80
19258;DHT22;9763;48.780;9.212;2022-09-30T17:24:42;17.20;66.80
19258;DHT22;9763;48.780;9.212;2022-09-30T17:28:05;17.10;66.70
19258;DHT22;9763;48.780;9.212;2022-09-30T17:31:29;17.00;66.80
19258;DHT22;9763;48.780;9.212;2022-09-30T17:34:53;16.90;66.80
19258;DHT22;9763;48.780;9.212;2022-09-30T17:38:16;15.30;65.20
19258;DHT22;9763;48.780;9.212;2022-09-30T17:41:41;16.70;66.80
19258;DHT22;9763;48.780;9.212;2022-09-30T17:45:22;16.70;66.70
19258;DHT22;9763;48.780;9.212;2022-09-30T17:48:49;16.60;66.80
19258;DHT22;9763;48.780;9.212;2022-09-30T17:52:17;16.50;66.70
19258;DHT22;9763;48.780;9.212;2022-09-30T17:55:41;16.30;66.70
19258;DHT22;9763;48.780;9.212;2022-09-30T17:59:06;16.30;66.90
19258;DHT22;9763;48.780;9.212;2022-09-30T18:02:31;16.10;66.70
19258;DHT22;9763;48.780;9.212;2022-09-30T18:05:58;16.00;67.00
19258;DHT22;9763;48.780;9.212;2022-09-30T18:09:22;15.90;67.00
19258;DHT22;9763;48.780;9.212;2022-09-30T18:12:45;15.80;67.20
19258;DHT22;9763;48.780;9.212;2022-09-30T18:16:11;15.80;67.50
19258;DHT22;9763;48.780;9.212;2022-09-30T18:19:35;15.80;67.50
19258;DHT22;9763;48.780;9.212;2022-09-30T18:22:58;15.70;67.60
19258;DHT22;9763;48.780;9.212;2022-09-30T18:26:22;15.70;67.70
19258;DHT22;9763;48.780;9.212;2022-09-30T18:29:45;15.60;67.60
19258;DHT22;9763;48.780;9.212;2022-09-30T18:33:10;15.60;67.60
19258;DHT22;9763;48.780;9.212;2022-09-30T18:36:38;15.60;67.50
19258;DHT22;9763;48.780;9.212;2022-09-30T18:40:01;15.50;67.60
19258;DHT22;9763;48.780;9.212;2022-09-30T18:43:25;15.50;67.80
19258;DHT22;9763;48.780;9.212;2022-09-30T18:46:48;15.50;67.80
19258;DHT22;9763;48.780;9.212;2022-09-30T18:50:13;15.40;67.80
19258;DHT22;9763;48.780;9.212;2022-09-30T18:53:38;15.30;67.60
19258;DHT22;9763;48.780;9.212;2022-09-30T18:57:02;15.30;67.80
19258;DHT22;9763;48.780;9.212;2022-09-30T19:00:26;15.20;68.00
19258;DHT22;9763;48.780;9.212;2022-09-30T19:03:52;15.10;68.20
19258;DHT22;9763;48.780;9.212;2022-09-30T19:07:19;15.10;68.30
19258;DHT22;9763;48.780;9.212;2022-09-30T19:10:42;15.00;68.10
19258;DHT22;9763;48.780;9.212;2022-09-30T19:14:08;15.00;68.30
19258;DHT22;9763;48.780;9.212;2022-09-30T19:17:33;14.90;68.20
19258;DHT22;9763;48.780;9.212;2022-09-30T19:21:08;14.90;68.10
19258;DHT22;9763;48.780;9.212;2022-09-30T19:24:46;14.80;68.20
19258;DHT22;9763;48.780;9.212;2022-09-30T19:28:10;14.80;68.40
19258;DHT22;9763;48.780;9.212;2022-09-30T19:31:35;14.70;68.40
19258;DHT22;9763;48.780;9.212;2022-09-30T19:34:59;14.70;68.50
19258;DHT22;9763;48.780;9.212;2022-09-30T19:38:29;14.60;68.40
19258;DHT22;9763;48.780;9.212;2022-09-30T19:42:00;14.60;68.50
19258;DHT22;9763;48.780;9.212;2022-09-30T19:45:25;14.50;68.50
19258;DHT22;9763;48.780;9.212;2022-09-30T19:48:49;14.50;68.60
19258;DHT22;9763;48.780;9.212;2022-09-30T19:52:12;14.50;68.70
19258;DHT22;9763;48.780;9.212;2022-09-30T19:55:43;14.40;68.70
19258;DHT22;9763;48.780;9.212;2022-09-30T19:59:13;14.40;68.70
19258;DHT22;9763;48.780;9.212;2022-09-30T20:02:37;14.30;68.60
19258;DHT22;9763;48.780;9.212;2022-09-30T20:06:03;14.30;68.70
19258;DHT22;9763;48.780;9.212;2022-09-30T20:09:30;14.30;68.90
19258;DHT22;9763;48.780;9.212;2022-09-30T20:12:53;14.20;68.80
19258;DHT22;9763;48.780;9.212;2022-09-30T20:16:18;14.20;68.90
19258;DHT22;9763;48.780;9.212;2022-09-30T20:19:41;14.10;68.80
19258;DHT22;9763;48.780;9.212;2022-09-30T20:23:25;14.10;69.00
19258;DHT22;9763;48.780;9.212;2022-09-30T20:26:49;14.00;69.10
19258;DHT22;9763;48.780;9.212;2022-09-30T20:30:13;14.00;69.20
19258;DHT22;9763;48.780;9.212;2022-09-30T20:33:40;14.00;69.20
19258;DHT22;9763;48.780;9.212;2022-09-30T20:37:04;13.90;69.20
19258;DHT22;9763;48.780;9.212;2022-09-30T20:40:28;13.90;69.20
19258;DHT22;9763;48.780;9.212;2022-09-30T20:43:51;13.80;69.20
19258;DHT22;9763;48.780;9.212;2022-09-30T20:47:15;13.80;69.50
19258;DHT22;9763;48.780;9.212;2022-09-30T20:50:40;13.70;69.50
19258;DHT22;9763;48.780;9.212;2022-09-30T20:54:06;13.60;69.60
19258;DHT22;9763;48.780;9.212;2022-09-30T20:57:31;13.60;69.90
19258;DHT22;9763;48.780;9.212;2022-09-30T21:00:59;13.60;70.10
19258;DHT22;9763;48.780;9.212;2022-09-30T21:04:24;13.60;70.10
19258;DHT22;9763;48.780;9.212;2022-09-30T21:07:49;13.50;70.00
19258;DHT22;9763;48.780;9.212;2022-09-30T21:11:13;13.50;70.00
19258;DHT22;9763;48.780;9.212;2022-09-30T21:14:36;13.50;70.00
19258;DHT22;9763;48.780;9.212;2022-09-30T21:18:01;13.50;70.00
19258;DHT22;9763;48.780;9.212;2022-09-30T21:21:24;13.50;70.80
19258;DHT22;9763;48.780;9.212;2022-09-30T21:24:52;13.40;69.70
19258;DHT22;9763;48.780;9.212;2022-09-30T21:28:16;13.40;69.80
19258;DHT22;9763;48.780;9.212;2022-09-30T21:31:39;13.40;70.00
19258;DHT22;9763;48.780;9.212;2022-09-30T21:35:03;13.30;70.10
19258;DHT22;9763;48.780;9.212;2022-09-30T21:38:27;13.30;70.20
19258;DHT22;9763;48.780;9.212;2022-09-30T21:41:53;13.30;70.20
19258;DHT22;9763;48.780;9.212;2022-09-30T21:45:16;13.30;70.10
19258;DHT22;9763;48.780;9.212;2022-09-30T21:48:43;13.20;70.10
19258;DHT22;9763;48.780;9.212;2022-09-30T21:52:07;13.20;70.10
19258;DHT22;9763;48.780;9.212;2022-09-30T21:55:31;13.20;70.20
19258;DHT22;9763;48.780;9.212;2022-09-30T21:58:56;13.20;70.10
19258;DHT22;9763;48.780;9.212;2022-09-30T22:02:20;13.20;70.30
19258;DHT22;9763;48.780;9.212;2022-09-30T22:05:49;13.20;70.40
19258;DHT22;9763;48.780;9.212;2022-09-30T22:09:14;13.10;70.50
19258;DHT22;9763;48.780;9.212;2022-09-30T22:12:38;13.10;70.60
19258;DHT22;9763;48.780;9.212;2022-09-30T22:16:04;13.10;70.80
19258;DHT22;9763;48.780;9.212;2022-09-30T22:19:29;13.10;70.90
19258;DHT22;9763;48.780;9.212;2022-09-30T22:22:53;13.10;71.10
19258;DHT22;9763;48.780;9.212;2022-09-30T22:26:18;13.10;71.20
19258;DHT22;9763;48.780;9.212;2022-09-30T22:29:43;13.10;71.30
19258;DHT22;9763;48.780;9.212;2022-09-30T22:33:08;13.10;71.30
19258;DHT22;9763;48.780;9.212;2022-09-30T22:36:49;13.10;71.20
19258;DHT22;9763;48.780;9.212;2022-09-30T22:40:30;13.10;71.20
19258;DHT22;9763;48.780;9.212;2022-09-30T22:43:54;13.10;71.10
19258;DHT22;9763;48.780;9.212;2022-09-30T22:47:18;13.00;71.10
19258;DHT22;9763;48.780;9.212;2022-09-30T22:50:42;13.00;71.10
19258;DHT22;9763;48.780;9.212;2022-09-30T22:54:06;13.00;71.30
19258;DHT22;9763;48.780;9.212;2022-09-30T22:57:30;13.00;71.40
19258;DHT22;9763;48.780;9.212;2022-09-30T23:00:55;12.90;71.30
19258;DHT22;9763;48.780;9.212;2022-09-30T23:04:21;12.90;71.30
19258;DHT22;9763;48.780;9.212;2022-09-30T23:07:45;12.90;71.30
19258;DHT22;9763;48.780;9.212;2022-09-30T23:11:10;12.90;71.20
19258;DHT22;9763;48.780;9.212;2022-09-30T23:14:36;12.90;71.20
19258;DHT22;9763;48.780;9.212;2022-09-30T23:17:59;12.90;71.20
19258;DHT22;9763;48.780;9.212;2022-09-30T23:21:23;12.80;71.10
19258;DHT22;9763;48.780;9.212;2022-09-30T23:24:49;12.80;71.20
19258;DHT22;9763;48.780;9.212;2022-09-30T23:28:12;12.80;71.30
19258;DHT22;9763;48.780;9.212;2022-09-30T23:31:35;12.70;71.20
19258;DHT22;9763;48.780;9.212;2022-09-30T23:35:00;12.70;71.20
19258;DHT22;9763;48.780;9.212;2022-09-30T23:38:24;12.70;71.20
19258;DHT22;9763;48.780;9.212;2022-09-30T23:41:49;12.60;71.20
19258;DHT22;9763;48.780;9.212;2022-09-30T23:45:13;12.60;72.00
19258;DHT22;9763;48.780;9.212;2022-09-30T23:48:37;12.60;71.40
19258;DHT22;9763;48.780;9.212;2022-09-30T23:52:01;12.50;71.40
19258;DHT22;9763;48.780;9.212;2022-09-30T23:55:30;12.50;71.50
19258;DHT22;9763;48.780;9.212;2022-09-30T23:58:55;12.50;71.60
